sensor_id;sensor_type;location;lat;lon;timestamp;P1;durP1;ratioP1;P2;durP2;ratioP2
29120;SDS011;16191;49.548;8.658;2023-02-28T00:00:48;6.15;;;2.88;;
29120;SDS011;16191;49.548;8.658;2023-02-28T00:03:15;6.72;;;2.70;;
29120;SDS011;16191;49.548;8.658;2023-02-28T00:05:41;5.50;;;2.47;;
29120;SDS011;16191;49.548;8.658;2023-02-28T00:08:08;4.03;;;2.67;;
29120;SDS011;16191;49.548;8.658;2023-02-28T00:10:35;4.88;;;2.70;;
29120;SDS011;16191;49.548;8.658;2023-02-28T00:13:03;5.90;;;3.05;;
29120;SDS011;16191;49.548;8.658;2023-02-28T00:15:32;5.72;;;3.15;;
29120;SDS011;16191;49.548;8.658;2023-02-28T00:17:59;4.13;;;2.80;;
29120;SDS011;16191;49.548;8.658;2023-02-28T00:20:26;4.38;;;2.85;;
29120;SDS011;16191;49.548;8.658;2023-02-28T00:22:53;7.40;;;3.13;;
29120;SDS011;16191;49.548;8.658;2023-02-28T00:25:24;5.70;;;2.83;;
29120;SDS011;16191;49.548;8.658;2023-02-28T00:27:52;5.25;;;3.13;;
29120;SDS011;16191;49.548;8.658;2023-02-28T00:30:20;4.80;;;2.85;;
29120;SDS011;16191;49.548;8.658;2023-02-28T00:32:48;4.65;;;2.80;;
29120;SDS011;16191;49.548;8.658;2023-02-28T00:35:15;5.72;;;3.30;;
29120;SDS011;16191;49.548;8.658;2023-02-28T00:37:42;5.72;;;2.90;;
29120;SDS011;16191;49.548;8.658;2023-02-28T00:40:09;4.25;;;2.75;;
29120;SDS011;16191;49.548;8.658;2023-02-28T00:42:38;5.05;;;3.13;;
29120;SDS011;16191;49.548;8.658;2023-02-28T00:45:06;4.65;;;2.67;;
29120;SDS011;16191;49.548;8.658;2023-02-28T00:47:36;5.00;;;3.20;;
29120;SDS011;16191;49.548;8.658;2023-02-28T00:50:03;6.20;;;2.90;;
29120;SDS011;16191;49.548;8.658;2023-02-28T00:52:31;9.60;;;3.80;;
29120;SDS011;16191;49.548;8.658;2023-02-28T00:54:57;6.32;;;3.00;;
29120;SDS011;16191;49.548;8.658;2023-02-28T00:57:24;6.13;;;3.20;;
29120;SDS011;16191;49.548;8.658;2023-02-28T00:59:50;7.60;;;3.47;;
29120;SDS011;16191;49.548;8.658;2023-02-28T01:02:17;5.00;;;2.97;;
29120;SDS011;16191;49.548;8.658;2023-02-28T01:04:46;7.45;;;3.33;;
29120;SDS011;16191;49.548;8.658;2023-02-28T01:07:13;6.22;;;3.80;;
29120;SDS011;16191;49.548;8.658;2023-02-28T01:09:41;7.30;;;3.50;;
29120;SDS011;16191;49.548;8.658;2023-02-28T01:12:08;4.15;;;2.88;;
29120;SDS011;16191;49.548;8.658;2023-02-28T01:14:34;5.93;;;3.47;;
29120;SDS011;16191;49.548;8.658;2023-02-28T01:17:01;5.43;;;3.33;;
29120;SDS011;16191;49.548;8.658;2023-02-28T01:19:28;5.82;;;3.90;;
29120;SDS011;16191;49.548;8.658;2023-02-28T01:21:54;7.30;;;3.40;;
29120;SDS011;16191;49.548;8.658;2023-02-28T01:24:21;6.18;;;3.60;;
29120;SDS011;16191;49.548;8.658;2023-02-28T01:26:48;10.30;;;3.90;;
29120;SDS011;16191;49.548;8.658;2023-02-28T01:29:14;6.68;;;4.20;;
29120;SDS011;16191;49.548;8.658;2023-02-28T01:31:41;6.35;;;3.97;;
29120;SDS011;16191;49.548;8.658;2023-02-28T01:34:08;8.90;;;4.68;;
29120;SDS011;16191;49.548;8.658;2023-02-28T01:36:34;7.05;;;4.13;;
29120;SDS011;16191;49.548;8.658;2023-02-28T01:39:00;8.65;;;4.40;;
29120;SDS011;16191;49.548;8.658;2023-02-28T01:41:29;6.00;;;3.53;;
29120;SDS011;16191;49.548;8.658;2023-02-28T01:47:17;6.47;;;3.88;;
29120;SDS011;16191;49.548;8.658;2023-02-28T01:49:44;6.70;;;3.53;;
29120;SDS011;16191;49.548;8.658;2023-02-28T01:52:11;7.72;;;3.38;;
29120;SDS011;16191;49.548;8.658;2023-02-28T01:54:50;9.18;;;4.22;;
29120;SDS011;16191;49.548;8.658;2023-02-28T01:57:21;7.10;;;4.18;;
29120;SDS011;16191;49.548;8.658;2023-02-28T01:59:59;6.90;;;4.10;;
29120;SDS011;16191;49.548;8.658;2023-02-28T02:02:38;8.98;;;3.83;;
29120;SDS011;16191;49.548;8.658;2023-02-28T02:07:35;6.60;;;4.10;;
29120;SDS011;16191;49.548;8.658;2023-02-28T02:10:18;6.70;;;4.35;;
29120;SDS011;16191;49.548;8.658;2023-02-28T02:24:38;7.70;;;4.40;;
29120;SDS011;16191;49.548;8.658;2023-02-28T02:27:24;6.65;;;4.38;;
29120;SDS011;16191;49.548;8.658;2023-02-28T02:41:46;5.68;;;3.70;;
29120;SDS011;16191;49.548;8.658;2023-02-28T02:44:39;6.05;;;4.00;;
29120;SDS011;16191;49.548;8.658;2023-02-28T02:47:35;6.68;;;4.05;;
29120;SDS011;16191;49.548;8.658;2023-02-28T02:50:25;9.15;;;4.38;;
29120;SDS011;16191;49.548;8.658;2023-02-28T02:52:57;7.65;;;4.32;;
29120;SDS011;16191;49.548;8.658;2023-02-28T02:55:30;8.07;;;4.00;;
29120;SDS011;16191;49.548;8.658;2023-02-28T02:58:01;7.28;;;4.10;;
29120;SDS011;16191;49.548;8.658;2023-02-28T03:00:32;9.43;;;4.90;;
29120;SDS011;16191;49.548;8.658;2023-02-28T03:03:04;8.18;;;4.70;;
29120;SDS011;16191;49.548;8.658;2023-02-28T03:05:52;7.75;;;4.43;;
29120;SDS011;16191;49.548;8.658;2023-02-28T03:08:18;4.88;;;3.70;;
29120;SDS011;16191;49.548;8.658;2023-02-28T03:10:46;7.72;;;4.20;;
29120;SDS011;16191;49.548;8.658;2023-02-28T03:13:32;9.63;;;4.35;;
29120;SDS011;16191;49.548;8.658;2023-02-28T03:21:45;6.40;;;4.72;;
29120;SDS011;16191;49.548;8.658;2023-02-28T03:30:06;9.73;;;4.60;;
29120;SDS011;16191;49.548;8.658;2023-02-28T03:35:20;9.05;;;5.32;;
29120;SDS011;16191;49.548;8.658;2023-02-28T03:37:50;7.55;;;5.40;;
29120;SDS011;16191;49.548;8.658;2023-02-28T03:40:20;10.25;;;5.13;;
29120;SDS011;16191;49.548;8.658;2023-02-28T03:42:50;9.23;;;5.43;;
29120;SDS011;16191;49.548;8.658;2023-02-28T03:45:23;7.10;;;4.75;;
29120;SDS011;16191;49.548;8.658;2023-02-28T03:47:53;8.50;;;5.35;;
29120;SDS011;16191;49.548;8.658;2023-02-28T03:50:26;9.13;;;5.30;;
29120;SDS011;16191;49.548;8.658;2023-02-28T03:53:00;6.30;;;4.93;;
29120;SDS011;16191;49.548;8.658;2023-02-28T03:55:37;11.20;;;5.53;;
29120;SDS011;16191;49.548;8.658;2023-02-28T03:58:16;7.25;;;5.43;;
29120;SDS011;16191;49.548;8.658;2023-02-28T04:00:56;8.30;;;4.57;;
29120;SDS011;16191;49.548;8.658;2023-02-28T04:03:35;8.52;;;4.78;;
29120;SDS011;16191;49.548;8.658;2023-02-28T04:06:04;7.50;;;5.00;;
29120;SDS011;16191;49.548;8.658;2023-02-28T04:08:33;10.73;;;5.05;;
29120;SDS011;16191;49.548;8.658;2023-02-28T04:11:04;8.18;;;5.13;;
29120;SDS011;16191;49.548;8.658;2023-02-28T04:13:41;8.45;;;5.05;;
29120;SDS011;16191;49.548;8.658;2023-02-28T04:16:07;5.93;;;4.45;;
29120;SDS011;16191;49.548;8.658;2023-02-28T04:18:49;6.43;;;4.65;;
29120;SDS011;16191;49.548;8.658;2023-02-28T04:21:16;9.60;;;4.43;;
29120;SDS011;16191;49.548;8.658;2023-02-28T04:23:46;8.65;;;5.15;;
29120;SDS011;16191;49.548;8.658;2023-02-28T04:26:13;10.52;;;4.95;;
29120;SDS011;16191;49.548;8.658;2023-02-28T04:28:39;7.38;;;4.93;;
29120;SDS011;16191;49.548;8.658;2023-02-28T04:31:06;10.90;;;5.60;;
29120;SDS011;16191;49.548;8.658;2023-02-28T04:33:33;9.55;;;4.05;;
29120;SDS011;16191;49.548;8.658;2023-02-28T04:38:37;6.30;;;4.07;;
29120;SDS011;16191;49.548;8.658;2023-02-28T04:41:04;8.85;;;4.22;;
29120;SDS011;16191;49.548;8.658;2023-02-28T04:43:32;6.03;;;4.45;;
29120;SDS011;16191;49.548;8.658;2023-02-28T04:46:00;7.05;;;4.45;;
29120;SDS011;16191;49.548;8.658;2023-02-28T04:48:29;8.45;;;4.70;;
29120;SDS011;16191;49.548;8.658;2023-02-28T04:51:04;6.95;;;4.15;;
29120;SDS011;16191;49.548;8.658;2023-02-28T04:53:33;10.30;;;3.50;;
29120;SDS011;16191;49.548;8.658;2023-02-28T04:56:01;8.25;;;4.07;;
29120;SDS011;16191;49.548;8.658;2023-02-28T04:58:28;8.23;;;4.18;;
29120;SDS011;16191;49.548;8.658;2023-02-28T05:01:06;8.32;;;4.22;;
29120;SDS011;16191;49.548;8.658;2023-02-28T05:03:44;6.20;;;4.05;;
29120;SDS011;16191;49.548;8.658;2023-02-28T05:06:11;8.02;;;4.22;;
29120;SDS011;16191;49.548;8.658;2023-02-28T05:08:39;7.85;;;3.80;;
29120;SDS011;16191;49.548;8.658;2023-02-28T05:11:07;7.80;;;4.05;;
29120;SDS011;16191;49.548;8.658;2023-02-28T05:13:39;5.78;;;3.72;;
29120;SDS011;16191;49.548;8.658;2023-02-28T05:16:06;7.28;;;4.35;;
29120;SDS011;16191;49.548;8.658;2023-02-28T05:18:33;8.82;;;4.30;;
29120;SDS011;16191;49.548;8.658;2023-02-28T05:21:00;8.10;;;4.82;;
29120;SDS011;16191;49.548;8.658;2023-02-28T05:23:28;7.82;;;4.55;;
29120;SDS011;16191;49.548;8.658;2023-02-28T05:25:55;8.52;;;4.97;;
29120;SDS011;16191;49.548;8.658;2023-02-28T05:28:22;8.45;;;4.72;;
29120;SDS011;16191;49.548;8.658;2023-02-28T05:30:50;7.93;;;4.10;;
29120;SDS011;16191;49.548;8.658;2023-02-28T05:33:16;5.60;;;4.07;;
29120;SDS011;16191;49.548;8.658;2023-02-28T05:35:43;9.60;;;4.97;;
29120;SDS011;16191;49.548;8.658;2023-02-28T05:38:09;8.75;;;5.13;;
29120;SDS011;16191;49.548;8.658;2023-02-28T05:40:37;9.38;;;5.38;;
29120;SDS011;16191;49.548;8.658;2023-02-28T05:43:05;8.85;;;4.72;;
29120;SDS011;16191;49.548;8.658;2023-02-28T05:45:32;9.18;;;4.70;;
29120;SDS011;16191;49.548;8.658;2023-02-28T05:47:58;9.25;;;4.72;;
29120;SDS011;16191;49.548;8.658;2023-02-28T05:50:25;8.98;;;4.65;;
29120;SDS011;16191;49.548;8.658;2023-02-28T05:52:51;8.55;;;4.57;;
29120;SDS011;16191;49.548;8.658;2023-02-28T05:55:18;6.65;;;4.22;;
29120;SDS011;16191;49.548;8.658;2023-02-28T05:57:45;9.75;;;4.65;;
29120;SDS011;16191;49.548;8.658;2023-02-28T06:00:12;7.68;;;4.55;;
29120;SDS011;16191;49.548;8.658;2023-02-28T06:02:42;9.70;;;4.75;;
29120;SDS011;16191;49.548;8.658;2023-02-28T06:05:16;11.00;;;5.05;;
29120;SDS011;16191;49.548;8.658;2023-02-28T06:07:44;8.55;;;4.68;;
29120;SDS011;16191;49.548;8.658;2023-02-28T06:10:11;11.40;;;5.93;;
29120;SDS011;16191;49.548;8.658;2023-02-28T06:12:38;10.45;;;5.55;;
29120;SDS011;16191;49.548;8.658;2023-02-28T06:15:05;8.25;;;5.50;;
29120;SDS011;16191;49.548;8.658;2023-02-28T06:17:31;7.85;;;5.22;;
29120;SDS011;16191;49.548;8.658;2023-02-28T06:19:58;10.93;;;5.50;;
29120;SDS011;16191;49.548;8.658;2023-02-28T06:22:25;9.60;;;5.25;;
29120;SDS011;16191;49.548;8.658;2023-02-28T06:24:51;7.05;;;4.63;;
29120;SDS011;16191;49.548;8.658;2023-02-28T06:27:18;11.07;;;5.10;;
29120;SDS011;16191;49.548;8.658;2023-02-28T06:29:46;9.77;;;5.95;;
29120;SDS011;16191;49.548;8.658;2023-02-28T06:32:13;9.25;;;5.35;;
29120;SDS011;16191;49.548;8.658;2023-02-28T06:34:39;11.80;;;5.07;;
29120;SDS011;16191;49.548;8.658;2023-02-28T06:37:06;10.35;;;5.40;;
29120;SDS011;16191;49.548;8.658;2023-02-28T06:39:33;16.30;;;6.13;;
29120;SDS011;16191;49.548;8.658;2023-02-28T06:42:00;10.20;;;5.90;;
29120;SDS011;16191;49.548;8.658;2023-02-28T06:44:26;9.73;;;5.25;;
29120;SDS011;16191;49.548;8.658;2023-02-28T06:46:53;8.85;;;6.13;;
29120;SDS011;16191;49.548;8.658;2023-02-28T06:49:20;7.55;;;5.53;;
29120;SDS011;16191;49.548;8.658;2023-02-28T06:51:46;11.13;;;5.95;;
29120;SDS011;16191;49.548;8.658;2023-02-28T06:54:13;7.15;;;5.30;;
29120;SDS011;16191;49.548;8.658;2023-02-28T06:56:40;9.40;;;5.18;;
29120;SDS011;16191;49.548;8.658;2023-02-28T06:59:06;9.73;;;5.60;;
29120;SDS011;16191;49.548;8.658;2023-02-28T07:01:33;8.95;;;5.22;;
29120;SDS011;16191;49.548;8.658;2023-02-28T07:03:59;14.43;;;5.97;;
29120;SDS011;16191;49.548;8.658;2023-02-28T07:06:26;8.88;;;4.78;;
29120;SDS011;16191;49.548;8.658;2023-02-28T07:08:54;8.90;;;5.53;;
29120;SDS011;16191;49.548;8.658;2023-02-28T07:11:21;12.63;;;5.75;;
29120;SDS011;16191;49.548;8.658;2023-02-28T07:13:49;9.60;;;5.55;;
29120;SDS011;16191;49.548;8.658;2023-02-28T07:16:17;8.07;;;4.75;;
29120;SDS011;16191;49.548;8.658;2023-02-28T07:18:44;9.52;;;5.57;;
29120;SDS011;16191;49.548;8.658;2023-02-28T07:21:11;13.73;;;7.10;;
29120;SDS011;16191;49.548;8.658;2023-02-28T07:23:38;10.55;;;5.43;;
29120;SDS011;16191;49.548;8.658;2023-02-28T07:26:05;10.80;;;5.85;;
29120;SDS011;16191;49.548;8.658;2023-02-28T07:28:33;11.85;;;6.50;;
29120;SDS011;16191;49.548;8.658;2023-02-28T07:31:04;9.20;;;5.35;;
29120;SDS011;16191;49.548;8.658;2023-02-28T07:33:31;8.88;;;5.63;;
29120;SDS011;16191;49.548;8.658;2023-02-28T07:36:03;13.43;;;5.72;;
29120;SDS011;16191;49.548;8.658;2023-02-28T07:38:34;12.35;;;6.30;;
29120;SDS011;16191;49.548;8.658;2023-02-28T07:41:02;7.93;;;4.60;;
29120;SDS011;16191;49.548;8.658;2023-02-28T07:43:31;11.20;;;4.80;;
29120;SDS011;16191;49.548;8.658;2023-02-28T07:46:06;10.63;;;5.50;;
29120;SDS011;16191;49.548;8.658;2023-02-28T07:48:35;9.38;;;4.80;;
29120;SDS011;16191;49.548;8.658;2023-02-28T07:51:02;10.32;;;5.13;;
29120;SDS011;16191;49.548;8.658;2023-02-28T07:53:29;7.50;;;5.05;;
29120;SDS011;16191;49.548;8.658;2023-02-28T07:55:56;9.85;;;5.38;;
29120;SDS011;16191;49.548;8.658;2023-02-28T07:58:24;10.23;;;4.80;;
29120;SDS011;16191;49.548;8.658;2023-02-28T08:00:52;17.02;;;5.72;;
29120;SDS011;16191;49.548;8.658;2023-02-28T08:03:19;10.07;;;5.30;;
29120;SDS011;16191;49.548;8.658;2023-02-28T08:05:47;11.45;;;4.78;;
29120;SDS011;16191;49.548;8.658;2023-02-28T08:08:14;9.10;;;4.93;;
29120;SDS011;16191;49.548;8.658;2023-02-28T08:10:42;7.82;;;4.50;;
29120;SDS011;16191;49.548;8.658;2023-02-28T08:13:09;9.85;;;4.90;;
29120;SDS011;16191;49.548;8.658;2023-02-28T08:15:35;6.30;;;4.25;;
29120;SDS011;16191;49.548;8.658;2023-02-28T08:18:02;8.10;;;5.28;;
29120;SDS011;16191;49.548;8.658;2023-02-28T08:20:29;8.23;;;4.80;;
29120;SDS011;16191;49.548;8.658;2023-02-28T08:22:56;8.38;;;4.97;;
29120;SDS011;16191;49.548;8.658;2023-02-28T08:25:23;7.00;;;4.40;;
29120;SDS011;16191;49.548;8.658;2023-02-28T08:27:50;8.38;;;5.00;;
29120;SDS011;16191;49.548;8.658;2023-02-28T08:30:18;8.98;;;4.85;;
29120;SDS011;16191;49.548;8.658;2023-02-28T08:32:45;9.63;;;5.38;;
29120;SDS011;16191;49.548;8.658;2023-02-28T08:35:12;9.35;;;5.38;;
29120;SDS011;16191;49.548;8.658;2023-02-28T08:37:39;10.38;;;5.07;;
29120;SDS011;16191;49.548;8.658;2023-02-28T08:40:06;11.80;;;5.72;;
29120;SDS011;16191;49.548;8.658;2023-02-28T08:42:33;7.85;;;5.00;;
29120;SDS011;16191;49.548;8.658;2023-02-28T08:44:59;9.15;;;4.47;;
29120;SDS011;16191;49.548;8.658;2023-02-28T08:47:26;9.07;;;5.15;;
29120;SDS011;16191;49.548;8.658;2023-02-28T08:49:52;9.30;;;4.68;;
29120;SDS011;16191;49.548;8.658;2023-02-28T08:52:19;10.98;;;4.93;;
29120;SDS011;16191;49.548;8.658;2023-02-28T08:54:45;8.80;;;5.47;;
29120;SDS011;16191;49.548;8.658;2023-02-28T08:57:12;8.90;;;4.80;;
29120;SDS011;16191;49.548;8.658;2023-02-28T08:59:39;10.95;;;5.22;;
29120;SDS011;16191;49.548;8.658;2023-02-28T09:02:05;9.95;;;4.75;;
29120;SDS011;16191;49.548;8.658;2023-02-28T09:04:33;7.50;;;4.88;;
29120;SDS011;16191;49.548;8.658;2023-02-28T09:07:00;8.40;;;4.38;;
29120;SDS011;16191;49.548;8.658;2023-02-28T09:09:26;8.85;;;5.10;;
29120;SDS011;16191;49.548;8.658;2023-02-28T09:11:54;8.63;;;4.70;;
29120;SDS011;16191;49.548;8.658;2023-02-28T09:14:22;9.45;;;4.60;;
29120;SDS011;16191;49.548;8.658;2023-02-28T09:16:48;8.77;;;5.10;;
29120;SDS011;16191;49.548;8.658;2023-02-28T09:19:15;8.23;;;4.68;;
29120;SDS011;16191;49.548;8.658;2023-02-28T09:21:41;9.68;;;5.20;;
29120;SDS011;16191;49.548;8.658;2023-02-28T09:24:08;8.90;;;4.60;;
29120;SDS011;16191;49.548;8.658;2023-02-28T09:26:34;10.52;;;4.93;;
29120;SDS011;16191;49.548;8.658;2023-02-28T09:29:12;9.63;;;4.97;;
29120;SDS011;16191;49.548;8.658;2023-02-28T09:31:40;10.85;;;5.57;;
29120;SDS011;16191;49.548;8.658;2023-02-28T09:34:07;10.65;;;5.10;;
29120;SDS011;16191;49.548;8.658;2023-02-28T09:36:34;11.70;;;4.85;;
29120;SDS011;16191;49.548;8.658;2023-02-28T09:39:11;9.32;;;5.05;;
29120;SDS011;16191;49.548;8.658;2023-02-28T09:41:41;7.03;;;4.63;;
29120;SDS011;16191;49.548;8.658;2023-02-28T09:44:15;11.73;;;5.70;;
29120;SDS011;16191;49.548;8.658;2023-02-28T09:46:48;11.10;;;5.30;;
29120;SDS011;16191;49.548;8.658;2023-02-28T09:49:22;9.63;;;5.40;;
29120;SDS011;16191;49.548;8.658;2023-02-28T09:51:56;10.73;;;5.43;;
29120;SDS011;16191;49.548;8.658;2023-02-28T09:54:30;9.82;;;5.00;;
29120;SDS011;16191;49.548;8.658;2023-02-28T10:05:11;10.70;;;5.32;;
29120;SDS011;16191;49.548;8.658;2023-02-28T10:07:56;7.23;;;4.87;;
29120;SDS011;16191;49.548;8.658;2023-02-28T10:10:33;10.88;;;5.40;;
29120;SDS011;16191;49.548;8.658;2023-02-28T10:13:06;9.63;;;5.00;;
29120;SDS011;16191;49.548;8.658;2023-02-28T10:15:48;7.70;;;4.93;;
29120;SDS011;16191;49.548;8.658;2023-02-28T10:18:21;7.32;;;4.95;;
29120;SDS011;16191;49.548;8.658;2023-02-28T10:20:51;8.75;;;4.97;;
29120;SDS011;16191;49.548;8.658;2023-02-28T10:26:04;9.60;;;5.28;;
29120;SDS011;16191;49.548;8.658;2023-02-28T10:28:38;11.43;;;5.70;;
29120;SDS011;16191;49.548;8.658;2023-02-28T10:31:05;12.50;;;5.88;;
29120;SDS011;16191;49.548;8.658;2023-02-28T10:33:37;11.20;;;4.90;;
29120;SDS011;16191;49.548;8.658;2023-02-28T10:36:04;8.50;;;5.13;;
29120;SDS011;16191;49.548;8.658;2023-02-28T10:38:37;7.43;;;5.15;;
29120;SDS011;16191;49.548;8.658;2023-02-28T10:41:08;8.27;;;5.07;;
29120;SDS011;16191;49.548;8.658;2023-02-28T10:43:38;10.10;;;4.97;;
29120;SDS011;16191;49.548;8.658;2023-02-28T10:51:07;9.57;;;4.80;;
29120;SDS011;16191;49.548;8.658;2023-02-28T10:56:26;8.23;;;5.63;;
29120;SDS011;16191;49.548;8.658;2023-02-28T10:59:00;10.27;;;5.70;;
29120;SDS011;16191;49.548;8.658;2023-02-28T11:01:46;7.97;;;5.30;;
29120;SDS011;16191;49.548;8.658;2023-02-28T11:06:58;8.32;;;5.30;;
29120;SDS011;16191;49.548;8.658;2023-02-28T11:09:39;10.50;;;5.40;;
29120;SDS011;16191;49.548;8.658;2023-02-28T11:14:55;11.20;;;6.03;;
29120;SDS011;16191;49.548;8.658;2023-02-28T11:17:28;13.43;;;5.50;;
29120;SDS011;16191;49.548;8.658;2023-02-28T11:19:58;10.15;;;5.75;;
29120;SDS011;16191;49.548;8.658;2023-02-28T11:22:30;10.68;;;5.82;;
29120;SDS011;16191;49.548;8.658;2023-02-28T11:25:01;9.50;;;5.78;;
29120;SDS011;16191;49.548;8.658;2023-02-28T11:30:00;12.05;;;5.57;;
29120;SDS011;16191;49.548;8.658;2023-02-28T11:32:27;8.25;;;5.35;;
29120;SDS011;16191;49.548;8.658;2023-02-28T11:37:35;7.90;;;5.07;;
29120;SDS011;16191;49.548;8.658;2023-02-28T11:40:05;7.57;;;4.88;;
29120;SDS011;16191;49.548;8.658;2023-02-28T11:42:42;7.13;;;4.90;;
29120;SDS011;16191;49.548;8.658;2023-02-28T11:45:31;11.75;;;5.32;;
29120;SDS011;16191;49.548;8.658;2023-02-28T11:50:50;7.13;;;5.05;;
29120;SDS011;16191;49.548;8.658;2023-02-28T11:53:44;11.27;;;5.20;;
29120;SDS011;16191;49.548;8.658;2023-02-28T12:02:05;6.65;;;4.57;;
29120;SDS011;16191;49.548;8.658;2023-02-28T12:10:28;10.30;;;5.55;;
29120;SDS011;16191;49.548;8.658;2023-02-28T12:19:08;8.05;;;5.88;;
29120;SDS011;16191;49.548;8.658;2023-02-28T12:24:46;9.27;;;6.18;;
29120;SDS011;16191;49.548;8.658;2023-02-28T12:27:37;7.85;;;5.63;;
29120;SDS011;16191;49.548;8.658;2023-02-28T12:30:13;9.65;;;6.20;;
29120;SDS011;16191;49.548;8.658;2023-02-28T12:32:47;9.63;;;6.03;;
29120;SDS011;16191;49.548;8.658;2023-02-28T12:35:21;10.57;;;7.28;;
29120;SDS011;16191;49.548;8.658;2023-02-28T12:37:57;9.68;;;5.70;;
29120;SDS011;16191;49.548;8.658;2023-02-28T12:40:39;10.45;;;6.50;;
29120;SDS011;16191;49.548;8.658;2023-02-28T12:43:15;11.48;;;5.75;;
29120;SDS011;16191;49.548;8.658;2023-02-28T12:45:58;9.18;;;6.32;;
29120;SDS011;16191;49.548;8.658;2023-02-28T12:48:31;8.38;;;5.65;;
29120;SDS011;16191;49.548;8.658;2023-02-28T12:53:41;12.70;;;6.65;;
29120;SDS011;16191;49.548;8.658;2023-02-28T12:56:33;8.02;;;5.70;;
29120;SDS011;16191;49.548;8.658;2023-02-28T13:02:02;10.25;;;6.22;;
29120;SDS011;16191;49.548;8.658;2023-02-28T13:05:00;7.13;;;5.25;;
29120;SDS011;16191;49.548;8.658;2023-02-28T13:10:20;8.73;;;5.65;;
29120;SDS011;16191;49.548;8.658;2023-02-28T13:12:50;8.85;;;5.82;;
29120;SDS011;16191;49.548;8.658;2023-02-28T13:17:51;9.68;;;5.90;;
29120;SDS011;16191;49.548;8.658;2023-02-28T13:20:21;10.88;;;6.05;;
29120;SDS011;16191;49.548;8.658;2023-02-28T13:22:52;10.35;;;6.00;;
29120;SDS011;16191;49.548;8.658;2023-02-28T13:28:11;8.90;;;5.25;;
29120;SDS011;16191;49.548;8.658;2023-02-28T13:33:23;9.88;;;6.10;;
29120;SDS011;16191;49.548;8.658;2023-02-28T13:38:49;10.43;;;6.47;;
29120;SDS011;16191;49.548;8.658;2023-02-28T13:43:59;8.70;;;5.95;;
29120;SDS011;16191;49.548;8.658;2023-02-28T13:51:49;9.13;;;6.00;;
29120;SDS011;16191;49.548;8.658;2023-02-28T13:54:31;9.15;;;6.15;;
29120;SDS011;16191;49.548;8.658;2023-02-28T14:02:47;9.15;;;5.90;;
29120;SDS011;16191;49.548;8.658;2023-02-28T14:05:29;9.77;;;5.55;;
29120;SDS011;16191;49.548;8.658;2023-02-28T14:08:02;10.80;;;5.70;;
29120;SDS011;16191;49.548;8.658;2023-02-28T14:10:41;9.70;;;5.90;;
29120;SDS011;16191;49.548;8.658;2023-02-28T14:16:14;9.10;;;5.75;;
29120;SDS011;16191;49.548;8.658;2023-02-28T14:21:36;11.27;;;6.05;;
29120;SDS011;16191;49.548;8.658;2023-02-28T14:32:59;9.07;;;5.88;;
29120;SDS011;16191;49.548;8.658;2023-02-28T14:36:04;9.95;;;6.13;;
29120;SDS011;16191;49.548;8.658;2023-02-28T14:38:46;10.63;;;6.03;;
29120;SDS011;16191;49.548;8.658;2023-02-28T14:41:44;8.13;;;5.50;;
29120;SDS011;16191;49.548;8.658;2023-02-28T14:44:16;7.97;;;5.78;;
29120;SDS011;16191;49.548;8.658;2023-02-28T14:46:54;11.85;;;5.68;;
29120;SDS011;16191;49.548;8.658;2023-02-28T14:49:29;9.32;;;6.03;;
29120;SDS011;16191;49.548;8.658;2023-02-28T14:52:18;11.30;;;6.03;;
29120;SDS011;16191;49.548;8.658;2023-02-28T14:54:52;9.10;;;5.93;;
29120;SDS011;16191;49.548;8.658;2023-02-28T14:57:27;9.98;;;5.55;;
29120;SDS011;16191;49.548;8.658;2023-02-28T15:02:26;8.35;;;6.10;;
29120;SDS011;16191;49.548;8.658;2023-02-28T15:05:02;13.05;;;6.40;;
29120;SDS011;16191;49.548;8.658;2023-02-28T15:07:39;8.57;;;5.72;;
29120;SDS011;16191;49.548;8.658;2023-02-28T15:10:07;10.48;;;5.97;;
29120;SDS011;16191;49.548;8.658;2023-02-28T15:12:54;9.43;;;6.40;;
29120;SDS011;16191;49.548;8.658;2023-02-28T15:15:24;7.55;;;5.25;;
29120;SDS011;16191;49.548;8.658;2023-02-28T15:18:55;8.57;;;5.88;;
29120;SDS011;16191;49.548;8.658;2023-02-28T15:21:11;8.25;;;5.15;;
29120;SDS011;16191;49.548;8.658;2023-02-28T15:23:45;7.82;;;5.72;;
29120;SDS011;16191;49.548;8.658;2023-02-28T15:26:16;8.27;;;5.28;;
29120;SDS011;16191;49.548;8.658;2023-02-28T15:28:46;9.25;;;5.82;;
29120;SDS011;16191;49.548;8.658;2023-02-28T15:31:26;8.63;;;5.57;;
29120;SDS011;16191;49.548;8.658;2023-02-28T15:34:05;8.80;;;5.68;;
29120;SDS011;16191;49.548;8.658;2023-02-28T15:36:33;10.02;;;5.97;;
29120;SDS011;16191;49.548;8.658;2023-02-28T15:39:16;8.85;;;5.60;;
29120;SDS011;16191;49.548;8.658;2023-02-28T15:41:45;8.55;;;5.50;;
29120;SDS011;16191;49.548;8.658;2023-02-28T15:44:28;9.25;;;5.82;;
29120;SDS011;16191;49.548;8.658;2023-02-28T15:47:01;9.98;;;6.60;;
29120;SDS011;16191;49.548;8.658;2023-02-28T15:49:34;9.18;;;6.32;;
29120;SDS011;16191;49.548;8.658;2023-02-28T15:52:19;9.27;;;5.53;;
29120;SDS011;16191;49.548;8.658;2023-02-28T15:54:48;9.50;;;5.90;;
29120;SDS011;16191;49.548;8.658;2023-02-28T15:57:20;9.02;;;6.20;;
29120;SDS011;16191;49.548;8.658;2023-02-28T15:59:51;9.77;;;5.65;;
29120;SDS011;16191;49.548;8.658;2023-02-28T16:02:35;8.20;;;5.53;;
29120;SDS011;16191;49.548;8.658;2023-02-28T16:07:33;8.10;;;5.50;;
29120;SDS011;16191;49.548;8.658;2023-02-28T16:10:01;8.30;;;6.43;;
29120;SDS011;16191;49.548;8.658;2023-02-28T16:12:30;9.60;;;6.18;;
29120;SDS011;16191;49.548;8.658;2023-02-28T16:14:59;10.52;;;6.82;;
29120;SDS011;16191;49.548;8.658;2023-02-28T16:19:59;9.13;;;5.80;;
29120;SDS011;16191;49.548;8.658;2023-02-28T16:22:25;11.25;;;6.18;;
29120;SDS011;16191;49.548;8.658;2023-02-28T16:24:52;8.88;;;5.85;;
29120;SDS011;16191;49.548;8.658;2023-02-28T16:27:30;9.98;;;6.45;;
29120;SDS011;16191;49.548;8.658;2023-02-28T16:29:59;11.07;;;6.50;;
29120;SDS011;16191;49.548;8.658;2023-02-28T16:32:34;9.90;;;6.43;;
29120;SDS011;16191;49.548;8.658;2023-02-28T16:35:02;10.80;;;7.20;;
29120;SDS011;16191;49.548;8.658;2023-02-28T16:37:29;10.27;;;6.32;;
29120;SDS011;16191;49.548;8.658;2023-02-28T16:39:56;10.80;;;7.18;;
29120;SDS011;16191;49.548;8.658;2023-02-28T16:42:24;12.32;;;6.78;;
29120;SDS011;16191;49.548;8.658;2023-02-28T16:44:53;11.77;;;6.38;;
29120;SDS011;16191;49.548;8.658;2023-02-28T16:47:21;14.20;;;7.57;;
29120;SDS011;16191;49.548;8.658;2023-02-28T16:49:48;12.38;;;7.00;;
29120;SDS011;16191;49.548;8.658;2023-02-28T16:52:15;14.90;;;7.07;;
29120;SDS011;16191;49.548;8.658;2023-02-28T16:54:42;12.77;;;6.15;;
29120;SDS011;16191;49.548;8.658;2023-02-28T16:57:19;13.70;;;7.15;;
29120;SDS011;16191;49.548;8.658;2023-02-28T16:59:49;11.38;;;6.72;;
29120;SDS011;16191;49.548;8.658;2023-02-28T17:02:18;9.70;;;6.63;;
29120;SDS011;16191;49.548;8.658;2023-02-28T17:04:46;14.40;;;7.88;;
29120;SDS011;16191;49.548;8.658;2023-02-28T17:07:13;11.18;;;7.20;;
29120;SDS011;16191;49.548;8.658;2023-02-28T17:09:43;11.98;;;7.70;;
29120;SDS011;16191;49.548;8.658;2023-02-28T17:12:11;11.90;;;7.25;;
29120;SDS011;16191;49.548;8.658;2023-02-28T17:14:38;10.10;;;6.43;;
29120;SDS011;16191;49.548;8.658;2023-02-28T17:17:05;11.93;;;7.85;;
29120;SDS011;16191;49.548;8.658;2023-02-28T17:19:32;12.65;;;7.90;;
29120;SDS011;16191;49.548;8.658;2023-02-28T17:22:00;13.90;;;8.20;;
29120;SDS011;16191;49.548;8.658;2023-02-28T17:24:27;11.40;;;7.05;;
29120;SDS011;16191;49.548;8.658;2023-02-28T17:26:56;13.82;;;7.03;;
29120;SDS011;16191;49.548;8.658;2023-02-28T17:29:23;12.40;;;7.55;;
29120;SDS011;16191;49.548;8.658;2023-02-28T17:31:51;16.60;;;8.35;;
29120;SDS011;16191;49.548;8.658;2023-02-28T17:34:17;15.25;;;9.48;;
29120;SDS011;16191;49.548;8.658;2023-02-28T17:36:46;15.38;;;8.32;;
29120;SDS011;16191;49.548;8.658;2023-02-28T17:39:14;12.57;;;7.93;;